Time;durP1;ratioP1;P1;durP2;ratioP2;P2;SDS_P1;SDS_P2;PMS_P1;PMS_P2;Temp;Humidity;BMP_temperature;BMP_pressure;BME280_temperature;BME280_humidity;BME280_pressure;Samples;Min_cycle;Max_cycle;Signal;HPM_P1;HPM_P2
2021/09/25 00:02:24;;;;;;;8.13;3.40;;;;;;;;;;5092231;28;20386;-68
2021/09/25 00:05:10;;;;;;;7.68;3.08;;;;;;;;;;5091664;28;20048;-68
2021/09/25 00:07:55;;;;;;;9.77;3.30;;;;;;;;;;5091912;28;20118;-68
2021/09/25 00:10:40;;;;;;;11.95;3.30;;;;;;;;;;5096473;28;20051;-68
2021/09/25 00:13:25;;;;;;;12.18;3.90;;;;;;;;;;5110911;28;20094;-69
2021/09/25 00:16:11;;;;;;;9.27;3.50;;;;;;;;;;5091807;28;20044;-68
2021/09/25 00:18:56;;;;;;;8.57;3.20;;;;;;;;;;5094034;28;20127;-68
2021/09/25 00:21:42;;;;;;;10.63;4.53;;;;;;;;;;5095711;28;20044;-68
2021/09/25 00:24:27;;;;;;;7.00;4.53;;;;;;;;;;5095607;28;20086;-68
2021/09/25 00:27:12;;;;;;;9.25;4.57;;;;;;;;;;5095809;28;20048;-68
2021/09/25 00:29:58;;;;;;;14.02;5.80;;;;;;;;;;5095752;28;20048;-68
2021/09/25 00:32:43;;;;;;;9.32;4.88;;;;;;;;;;5095859;28;20052;-67
2021/09/25 00:35:28;;;;;;;16.17;5.50;;;;;;;;;;5115679;28;20047;-68
2021/09/25 00:38:13;;;;;;;7.57;4.30;;;;;;;;;;5116038;28;20051;-67
2021/09/25 00:40:59;;;;;;;10.90;4.95;;;;;;;;;;5116101;28;20119;-68
2021/09/25 00:43:45;;;;;;;9.57;5.80;;;;;;;;;;5115592;28;20127;-68
2021/09/25 00:46:30;;;;;;;11.57;4.75;;;;;;;;;;5115955;28;20413;-67
2021/09/25 00:49:19;;;;;;;10.23;4.85;;;;;;;;;;5100470;28;20518;-68
2021/09/25 00:52:05;;;;;;;9.52;4.75;;;;;;;;;;5114878;28;20047;-68
2021/09/25 00:54:50;;;;;;;17.40;4.88;;;;;;;;;;5114955;28;20123;-68
2021/09/25 00:57:36;;;;;;;11.55;5.00;;;;;;;;;;5115505;28;20051;-68
2021/09/25 01:00:21;;;;;;;13.55;5.72;;;;;;;;;;5115426;28;20047;-68
2021/09/25 01:03:06;;;;;;;11.05;4.70;;;;;;;;;;5104620;28;20065;-67
2021/09/25 01:05:52;;;;;;;11.45;5.13;;;;;;;;;;5094872;28;20047;-67
2021/09/25 01:08:37;;;;;;;14.98;4.95;;;;;;;;;;5094868;28;20106;-68
2021/09/25 01:11:22;;;;;;;11.25;5.07;;;;;;;;;;5094167;28;20052;-68
2021/09/25 01:14:08;;;;;;;12.68;4.88;;;;;;;;;;5098745;28;20142;-68
2021/09/25 01:16:53;;;;;;;12.27;4.72;;;;;;;;;;5115181;28;20044;-68
2021/09/25 01:19:38;;;;;;;10.27;4.38;;;;;;;;;;5115199;28;20440;-68
2021/09/25 01:22:24;;;;;;;15.88;5.47;;;;;;;;;;5115384;28;20044;-68
2021/09/25 01:25:09;;;;;;;12.43;4.60;;;;;;;;;;5114793;28;20056;-68
2021/09/25 01:27:54;;;;;;;11.70;5.00;;;;;;;;;;5115190;28;20119;-68
2021/09/25 01:30:40;;;;;;;9.68;4.82;;;;;;;;;;5114689;28;20055;-68
2021/09/25 01:33:26;;;;;;;14.45;5.13;;;;;;;;;;5110504;28;20051;-69
2021/09/25 01:36:11;;;;;;;12.75;4.63;;;;;;;;;;5094659;28;20056;-68
2021/09/25 01:38:56;;;;;;;14.40;4.75;;;;;;;;;;5094236;28;20052;-68
2021/09/25 01:41:42;;;;;;;14.43;5.72;;;;;;;;;;5094518;28;20413;-68
2021/09/25 01:44:27;;;;;;;12.13;4.35;;;;;;;;;;5093051;28;20048;-68
2021/09/25 01:47:12;;;;;;;13.27;5.20;;;;;;;;;;5094317;28;20101;-69
2021/09/25 01:49:59;;;;;;;10.45;4.53;;;;;;;;;;5094109;28;20068;-68
2021/09/25 01:52:44;;;;;;;12.60;5.40;;;;;;;;;;5102251;28;20505;-68
2021/09/25 01:55:30;;;;;;;16.75;5.15;;;;;;;;;;5099048;28;20051;-69
2021/09/25 01:58:15;;;;;;;13.07;5.20;;;;;;;;;;5114361;28;20566;-68
2021/09/25 02:01:00;;;;;;;16.83;5.60;;;;;;;;;;5114676;28;20052;-68
2021/09/25 02:03:45;;;;;;;9.38;4.82;;;;;;;;;;5080296;28;20056;-68
2021/09/25 02:06:30;;;;;;;18.33;5.10;;;;;;;;;;5095942;28;20468;-68
2021/09/25 02:09:15;;;;;;;11.68;5.53;;;;;;;;;;5114136;28;20493;-68
2021/09/25 02:12:01;;;;;;;15.07;5.25;;;;;;;;;;5114328;28;20123;-68
2021/09/25 02:14:46;;;;;;;15.02;5.35;;;;;;;;;;5093556;28;20052;-68
2021/09/25 02:17:31;;;;;;;16.55;4.70;;;;;;;;;;5075364;28;20059;-69
2021/09/25 02:20:16;;;;;;;17.30;5.82;;;;;;;;;;5075327;28;20126;-68
2021/09/25 02:23:01;;;;;;;11.15;4.47;;;;;;;;;;5093429;28;20052;-68
2021/09/25 02:25:47;;;;;;;15.82;4.75;;;;;;;;;;5093197;28;20052;-68
2021/09/25 02:28:32;;;;;;;15.27;6.03;;;;;;;;;;5093304;28;20509;-68
2021/09/25 02:31:20;;;;;;;11.40;5.03;;;;;;;;;;5093409;28;20087;-68
2021/09/25 02:34:05;;;;;;;11.90;5.68;;;;;;;;;;5101218;28;20052;-69
2021/09/25 02:36:50;;;;;;;15.38;5.55;;;;;;;;;;5113532;28;20051;-68
2021/09/25 02:39:35;;;;;;;21.60;5.35;;;;;;;;;;5113579;28;20048;-68
2021/09/25 02:42:20;;;;;;;16.27;5.13;;;;;;;;;;5112756;28;20052;-68
2021/09/25 02:45:07;;;;;;;11.40;5.07;;;;;;;;;;5098216;28;20052;-68
2021/09/25 02:47:52;;;;;;;14.55;4.93;;;;;;;;;;5077920;28;20052;-68
2021/09/25 02:50:37;;;;;;;21.33;5.65;;;;;;;;;;5093071;28;20059;-68
2021/09/25 02:53:22;;;;;;;13.82;5.05;;;;;;;;;;5074753;28;20557;-68
2021/09/25 02:56:07;;;;;;;16.83;5.57;;;;;;;;;;5093102;28;20052;-68
2021/09/25 02:58:52;;;;;;;14.00;5.47;;;;;;;;;;5077577;28;20052;-68
2021/09/25 03:01:37;;;;;;;11.88;4.72;;;;;;;;;;5091749;28;20491;-69
2021/09/25 03:04:22;;;;;;;16.90;5.18;;;;;;;;;;5091619;28;20067;-69
2021/09/25 03:07:08;;;;;;;12.35;5.57;;;;;;;;;;5092825;28;20060;-68
2021/09/25 03:09:53;;;;;;;13.85;5.20;;;;;;;;;;5092809;28;20056;-68
2021/09/25 03:12:39;;;;;;;11.20;5.32;;;;;;;;;;5092781;28;20055;-67
2021/09/25 03:15:24;;;;;;;14.77;5.65;;;;;;;;;;5099855;28;20122;-68
2021/09/25 03:18:09;;;;;;;12.77;5.53;;;;;;;;;;5112998;28;20051;-67
2021/09/25 03:20:54;;;;;;;16.40;5.63;;;;;;;;;;5113015;28;20051;-68
2021/09/25 03:23:40;;;;;;;11.98;5.65;;;;;;;;;;5112683;28;20048;-68
2021/09/25 03:26:25;;;;;;;12.55;5.32;;;;;;;;;;5098191;28;20048;-67
2021/09/25 03:29:10;;;;;;;13.10;5.32;;;;;;;;;;5092441;28;20056;-68
2021/09/25 03:31:56;;;;;;;17.33;6.53;;;;;;;;;;5092374;28;20067;-68
2021/09/25 03:34:41;;;;;;;14.85;5.85;;;;;;;;;;5091988;28;20127;-69
2021/09/25 03:37:26;;;;;;;12.70;5.50;;;;;;;;;;5092092;28;20510;-68
2021/09/25 03:40:12;;;;;;;13.20;5.88;;;;;;;;;;5092040;28;20044;-68
2021/09/25 03:42:58;;;;;;;17.13;5.45;;;;;;;;;;5092166;28;20123;-68
2021/09/25 03:45:43;;;;;;;20.30;6.90;;;;;;;;;;5091716;28;20440;-68
2021/09/25 03:48:28;;;;;;;14.50;6.38;;;;;;;;;;5092054;28;20082;-68
2021/09/25 03:51:13;;;;;;;14.10;5.85;;;;;;;;;;5073907;28;20399;-67
2021/09/25 03:53:59;;;;;;;15.90;6.22;;;;;;;;;;5091987;28;20131;-68
2021/09/25 03:56:44;;;;;;;16.92;5.43;;;;;;;;;;5099118;28;20047;-69
2021/09/25 03:59:29;;;;;;;12.55;5.88;;;;;;;;;;5112222;28;20086;-69
2021/09/25 04:02:15;;;;;;;9.80;5.90;;;;;;;;;;5112462;28;20048;-68
2021/09/25 04:05:00;;;;;;;17.52;5.97;;;;;;;;;;5112123;28;20051;-68
2021/09/25 04:07:46;;;;;;;13.75;7.43;;;;;;;;;;5092821;28;20059;-68
2021/09/25 04:10:31;;;;;;;11.27;6.32;;;;;;;;;;5112404;28;20133;-68
2021/09/25 04:13:17;;;;;;;13.95;6.43;;;;;;;;;;5112369;28;20047;-68
2021/09/25 04:16:02;;;;;;;14.88;6.32;;;;;;;;;;5112172;28;20056;-69
2021/09/25 04:18:47;;;;;;;14.23;6.25;;;;;;;;;;5095868;28;20409;-68
2021/09/25 04:21:33;;;;;;;17.92;6.47;;;;;;;;;;5112296;28;20052;-68
2021/09/25 04:24:18;;;;;;;14.55;6.60;;;;;;;;;;5111976;28;20056;-68
2021/09/25 04:27:03;;;;;;;14.32;6.93;;;;;;;;;;5110638;28;20055;-68
2021/09/25 04:29:49;;;;;;;13.82;7.57;;;;;;;;;;5091814;28;20052;-68
2021/09/25 04:32:34;;;;;;;14.23;6.55;;;;;;;;;;5091737;28;20119;-68
2021/09/25 04:35:20;;;;;;;16.95;8.10;;;;;;;;;;5091357;28;20051;-68
2021/09/25 04:38:05;;;;;;;17.83;8.48;;;;;;;;;;5111903;28;20043;-68
2021/09/25 04:40:50;;;;;;;12.48;7.47;;;;;;;;;;5112018;28;20517;-68
2021/09/25 04:43:36;;;;;;;14.57;8.60;;;;;;;;;;5111893;28;20051;-68
2021/09/25 04:46:21;;;;;;;14.27;7.63;;;;;;;;;;5102601;28;20122;-68
2021/09/25 04:49:06;;;;;;;18.65;7.95;;;;;;;;;;5091504;28;20056;-68
2021/09/25 04:51:51;;;;;;;24.05;8.98;;;;;;;;;;5073485;28;20052;-68
2021/09/25 04:54:36;;;;;;;18.48;8.82;;;;;;;;;;5091399;28;20056;-67
2021/09/25 04:57:22;;;;;;;19.55;8.93;;;;;;;;;;5091472;28;20048;-68
2021/09/25 05:00:08;;;;;;;17.02;8.35;;;;;;;;;;5090903;28;20056;-66
2021/09/25 05:02:53;;;;;;;23.10;9.10;;;;;;;;;;5091602;28;20052;-68
2021/09/25 05:05:39;;;;;;;17.30;9.23;;;;;;;;;;5094322;28;20127;-67
2021/09/25 05:08:24;;;;;;;15.40;9.30;;;;;;;;;;5076954;28;20051;-67
2021/09/25 05:11:09;;;;;;;20.00;9.45;;;;;;;;;;5095141;28;20052;-67
2021/09/25 05:13:54;;;;;;;18.48;9.10;;;;;;;;;;5094674;28;20052;-68
2021/09/25 05:16:40;;;;;;;19.50;9.82;;;;;;;;;;5094683;28;20417;-67
2021/09/25 05:19:25;;;;;;;21.75;10.50;;;;;;;;;;5094952;28;20413;-67
2021/09/25 05:22:10;;;;;;;16.75;10.15;;;;;;;;;;5094853;28;20418;-68
2021/09/25 05:24:56;;;;;;;22.70;9.98;;;;;;;;;;5094400;28;20505;-69
2021/09/25 05:27:42;;;;;;;19.65;10.10;;;;;;;;;;5076491;28;20056;-68
2021/09/25 05:30:29;;;;;;;18.85;9.85;;;;;;;;;;5094516;28;20051;-69
2021/09/25 05:33:15;;;;;;;21.90;10.70;;;;;;;;;;5094515;28;20094;-68
2021/09/25 05:36:00;;;;;;;21.55;11.05;;;;;;;;;;5076325;28;20055;-68
2021/09/25 05:38:45;;;;;;;18.73;11.23;;;;;;;;;;5111257;28;20051;-69
2021/09/25 05:41:30;;;;;;;20.05;10.75;;;;;;;;;;5114646;28;20056;-69
2021/09/25 05:44:16;;;;;;;18.45;10.98;;;;;;;;;;5114562;28;20051;-68
2021/09/25 05:47:01;;;;;;;21.65;11.05;;;;;;;;;;5095811;28;20405;-68
2021/09/25 05:49:47;;;;;;;21.00;11.95;;;;;;;;;;5096224;28;20102;-67
2021/09/25 05:52:32;;;;;;;21.42;11.35;;;;;;;;;;5094403;28;20074;-68
2021/09/25 05:55:20;;;;;;;18.50;11.00;;;;;;;;;;5081018;28;20055;-68
2021/09/25 05:58:06;;;;;;;20.52;11.70;;;;;;;;;;5093984;28;20052;-68
2021/09/25 06:00:51;;;;;;;24.35;12.32;;;;;;;;;;5099571;28;20114;-69
2021/09/25 06:03:37;;;;;;;20.38;11.40;;;;;;;;;;5114211;28;20043;-67
2021/09/25 06:06:22;;;;;;;24.67;12.38;;;;;;;;;;5114340;28;20052;-68
2021/09/25 06:09:07;;;;;;;18.45;10.98;;;;;;;;;;5114307;28;20051;-68
2021/09/25 06:11:53;;;;;;;29.70;11.07;;;;;;;;;;5114277;28;20055;-68
2021/09/25 06:14:38;;;;;;;25.00;11.95;;;;;;;;;;5098682;28;20119;-68
2021/09/25 06:17:24;;;;;;;22.55;12.15;;;;;;;;;;5097660;28;20509;-67
2021/09/25 06:20:09;;;;;;;17.10;11.45;;;;;;;;;;5093681;28;20052;-68
2021/09/25 06:22:55;;;;;;;19.08;11.20;;;;;;;;;;5093624;28;20052;-67
2021/09/25 06:25:40;;;;;;;22.33;11.52;;;;;;;;;;5093504;28;20119;-68
2021/09/25 06:28:26;;;;;;;17.73;10.48;;;;;;;;;;5093401;28;20056;-68
2021/09/25 06:31:11;;;;;;;18.10;11.73;;;;;;;;;;5093453;28;20059;-67
2021/09/25 06:33:56;;;;;;;19.90;11.30;;;;;;;;;;5093120;28;20495;-68
2021/09/25 06:36:41;;;;;;;20.08;12.32;;;;;;;;;;5100531;28;20040;-68
2021/09/25 06:39:27;;;;;;;28.70;12.65;;;;;;;;;;5113415;28;20043;-68
2021/09/25 06:42:12;;;;;;;20.17;11.32;;;;;;;;;;5095152;28;20126;-68
2021/09/25 06:44:57;;;;;;;20.15;12.32;;;;;;;;;;5111867;28;20090;-67
2021/09/25 06:47:42;;;;;;;22.08;11.70;;;;;;;;;;5113568;28;20081;-67
2021/09/25 06:50:28;;;;;;;18.98;11.32;;;;;;;;;;5109644;28;20048;-68
2021/09/25 06:53:13;;;;;;;21.35;11.48;;;;;;;;;;5113539;28;20055;-68
2021/09/25 06:55:58;;;;;;;18.98;12.05;;;;;;;;;;5106435;28;20055;-68
2021/09/25 06:58:43;;;;;;;21.38;11.45;;;;;;;;;;5096534;28;20043;-68
2021/09/25 07:01:29;;;;;;;24.95;11.70;;;;;;;;;;5100444;28;20052;-68
2021/09/25 07:04:14;;;;;;;21.83;12.40;;;;;;;;;;5092610;28;20044;-68
2021/09/25 07:06:59;;;;;;;18.92;10.98;;;;;;;;;;5087633;28;20068;-68
2021/09/25 07:09:45;;;;;;;18.83;12.05;;;;;;;;;;5113235;28;20055;-68
2021/09/25 07:12:30;;;;;;;22.52;11.88;;;;;;;;;;5113149;28;20059;-67
2021/09/25 07:15:15;;;;;;;21.38;11.88;;;;;;;;;;5093406;28;20059;-68
2021/09/25 07:18:01;;;;;;;17.65;11.00;;;;;;;;;;5097800;28;20043;-68
2021/09/25 07:20:46;;;;;;;17.48;11.65;;;;;;;;;;5107046;28;20036;-68
2021/09/25 07:23:31;;;;;;;15.43;11.00;;;;;;;;;;5076849;28;20052;-67
2021/09/25 07:26:16;;;;;;;22.52;12.60;;;;;;;;;;5077025;28;20126;-69
2021/09/25 07:29:01;;;;;;;18.92;11.52;;;;;;;;;;5092452;28;20127;-68
2021/09/25 07:31:46;;;;;;;17.48;11.73;;;;;;;;;;5092366;28;20467;-68
2021/09/25 07:34:31;;;;;;;21.83;12.80;;;;;;;;;;5092116;28;20051;-69
2021/09/25 07:37:17;;;;;;;20.77;12.02;;;;;;;;;;5092395;28;20130;-68
2021/09/25 07:40:03;;;;;;;24.13;12.88;;;;;;;;;;5092150;28;20052;-69
2021/09/25 07:42:48;;;;;;;25.67;12.90;;;;;;;;;;5101643;28;20043;-69
2021/09/25 07:45:33;;;;;;;21.48;12.98;;;;;;;;;;5092144;28;20052;-68
2021/09/25 07:48:19;;;;;;;28.25;13.98;;;;;;;;;;5091154;28;20048;-68
2021/09/25 07:51:04;;;;;;;25.48;14.52;;;;;;;;;;5092374;28;20052;-68
2021/09/25 07:53:49;;;;;;;28.02;14.82;;;;;;;;;;5091807;28;20561;-68
2021/09/25 07:56:35;;;;;;;29.30;14.00;;;;;;;;;;5092004;28;20067;-69
2021/09/25 07:59:20;;;;;;;31.90;16.15;;;;;;;;;;5076314;28;20084;-68
2021/09/25 08:02:06;;;;;;;30.25;15.20;;;;;;;;;;5106822;28;20126;-69
2021/09/25 08:04:51;;;;;;;29.88;14.75;;;;;;;;;;5112079;28;20505;-69
2021/09/25 08:07:37;;;;;;;33.78;16.38;;;;;;;;;;5094267;28;20047;-69
2021/09/25 08:10:22;;;;;;;32.25;15.25;;;;;;;;;;5112125;28;20498;-69
2021/09/25 08:13:07;;;;;;;27.60;15.70;;;;;;;;;;5112419;28;20055;-69
2021/09/25 08:15:53;;;;;;;28.77;14.57;;;;;;;;;;5112219;28;20127;-69
2021/09/25 08:18:38;;;;;;;29.27;15.52;;;;;;;;;;5112240;28;20098;-69
2021/09/25 08:21:24;;;;;;;29.25;14.10;;;;;;;;;;5112254;28;20044;-69
2021/09/25 08:24:09;;;;;;;30.55;15.38;;;;;;;;;;5111894;28;20043;-69
2021/09/25 08:26:55;;;;;;;31.13;15.90;;;;;;;;;;5102414;28;20467;-69
2021/09/25 08:29:41;;;;;;;24.85;13.90;;;;;;;;;;5090412;28;20502;-69
2021/09/25 08:32:26;;;;;;;27.70;14.43;;;;;;;;;;5091711;28;20052;-69
2021/09/25 08:35:11;;;;;;;29.00;14.85;;;;;;;;;;5091473;28;20060;-69
2021/09/25 08:37:56;;;;;;;26.02;14.55;;;;;;;;;;5091628;28;20134;-69
2021/09/25 08:40:42;;;;;;;29.25;14.70;;;;;;;;;;5093515;28;20097;-69
2021/09/25 08:43:27;;;;;;;27.58;14.88;;;;;;;;;;5095421;28;20052;-69
2021/09/25 08:46:14;;;;;;;21.88;13.85;;;;;;;;;;5095522;28;20040;-69
2021/09/25 08:48:59;;;;;;;23.92;13.50;;;;;;;;;;5095287;28;20052;-69
2021/09/25 08:51:45;;;;;;;36.90;16.15;;;;;;;;;;5095712;28;20453;-68
2021/09/25 08:54:30;;;;;;;26.88;15.30;;;;;;;;;;5097733;28;20509;-69
2021/09/25 08:57:16;;;;;;;25.92;14.77;;;;;;;;;;5100315;28;20048;-68
2021/09/25 09:00:19;;;;;;;27.00;15.02;;;;;;;;;;5101616;28;20052;-69
2021/09/25 09:03:23;;;;;;;29.30;16.25;;;;;;;;;;5102090;28;20052;-68
2021/09/25 09:06:17;;;;;;;27.25;16.77;;;;;;;;;;5105420;28;20087;-69
2021/09/25 09:09:03;;;;;;;32.42;17.27;;;;;;;;;;5115398;28;20047;-68
2021/09/25 09:11:49;;;;;;;27.92;16.42;;;;;;;;;;5115565;28;20052;-68
2021/09/25 09:14:41;;;;;;;27.75;16.40;;;;;;;;;;5079282;28;20052;-69
2021/09/25 09:17:27;;;;;;;33.55;18.02;;;;;;;;;;5087858;28;20062;-68
2021/09/25 09:20:13;;;;;;;30.23;18.45;;;;;;;;;;5087791;28;20123;-68
2021/09/25 09:23:13;;;;;;;33.50;17.83;;;;;;;;;;5101552;28;20044;-69
2021/09/25 09:25:59;;;;;;;34.83;17.90;;;;;;;;;;5104324;28;20464;-68
2021/09/25 09:28:44;;;;;;;34.40;16.20;;;;;;;;;;5110234;28;20056;-69
2021/09/25 09:31:29;;;;;;;60.88;19.15;;;;;;;;;;5094822;28;20410;-69
2021/09/25 09:34:16;;;;;;;27.90;17.98;;;;;;;;;;5093065;28;20048;-69
2021/09/25 09:37:01;;;;;;;37.92;18.80;;;;;;;;;;5093414;28;20052;-68
2021/09/25 09:40:07;;;;;;;32.55;18.50;;;;;;;;;;5078766;28;20131;-68
2021/09/25 09:42:53;;;;;;;30.98;17.05;;;;;;;;;;5094373;28;20056;-68
2021/09/25 09:45:39;;;;;;;35.42;17.80;;;;;;;;;;5094086;28;20085;-68
2021/09/25 09:48:24;;;;;;;33.78;18.25;;;;;;;;;;5094394;28;20089;-68
2021/09/25 09:51:09;;;;;;;34.05;18.45;;;;;;;;;;5093948;28;20056;-68
2021/09/25 09:53:55;;;;;;;41.47;19.95;;;;;;;;;;5078518;28;20064;-69
2021/09/25 09:56:41;;;;;;;35.67;18.52;;;;;;;;;;5099651;28;20047;-68
2021/09/25 09:59:26;;;;;;;33.17;18.80;;;;;;;;;;5114322;28;20055;-68
2021/09/25 10:02:11;;;;;;;30.70;18.40;;;;;;;;;;5114311;28;20093;-67
2021/09/25 10:04:57;;;;;;;31.00;17.90;;;;;;;;;;5098870;28;20051;-68
2021/09/25 10:07:43;;;;;;;30.80;17.80;;;;;;;;;;5114327;28;20048;-69
2021/09/25 10:10:28;;;;;;;30.05;18.30;;;;;;;;;;5114080;28;20056;-69
2021/09/25 10:13:16;;;;;;;34.33;19.05;;;;;;;;;;5082049;28;20094;-68
2021/09/25 10:16:01;;;;;;;33.65;19.83;;;;;;;;;;5099484;28;20109;-69
2021/09/25 10:18:47;;;;;;;30.20;19.15;;;;;;;;;;5078375;28;20044;-69
2021/09/25 10:21:34;;;;;;;37.30;19.75;;;;;;;;;;5098072;28;20051;-68
2021/09/25 10:24:23;;;;;;;33.85;18.75;;;;;;;;;;5086517;28;20043;-69
2021/09/25 10:27:09;;;;;;;33.80;19.58;;;;;;;;;;5097498;28;20040;-68
2021/09/25 10:29:54;;;;;;;37.67;19.55;;;;;;;;;;5100144;28;20509;-68
2021/09/25 10:32:42;;;;;;;34.33;19.52;;;;;;;;;;5098829;28;20479;-68
2021/09/25 10:35:27;;;;;;;38.20;20.60;;;;;;;;;;5093146;28;20052;-68
2021/09/25 10:38:12;;;;;;;38.40;20.83;;;;;;;;;;5092164;28;20087;-67
2021/09/25 10:40:58;;;;;;;34.75;20.80;;;;;;;;;;5091950;28;20056;-68
2021/09/25 10:43:44;;;;;;;35.55;20.77;;;;;;;;;;5091961;28;20048;-68
2021/09/25 10:46:29;;;;;;;34.55;20.50;;;;;;;;;;5093294;28;20048;-68
2021/09/25 10:49:14;;;;;;;29.75;19.30;;;;;;;;;;5092982;28;20526;-67
2021/09/25 10:51:59;;;;;;;36.85;20.23;;;;;;;;;;5092973;28;20532;-68
2021/09/25 10:54:45;;;;;;;30.88;20.15;;;;;;;;;;5092955;28;20055;-68
2021/09/25 10:57:30;;;;;;;29.90;19.50;;;;;;;;;;5093762;28;20052;-68
2021/09/25 11:00:15;;;;;;;32.33;20.33;;;;;;;;;;5093532;28;20463;-68
2021/09/25 11:03:00;;;;;;;34.35;20.80;;;;;;;;;;5092302;28;20044;-68
2021/09/25 11:06:04;;;;;;;32.30;20.23;;;;;;;;;;5092453;28;20471;-69
2021/09/25 11:09:16;;;;;;;65.25;21.98;;;;;;;;;;5092240;28;20055;-64
2021/09/25 11:12:08;;;;;;;32.97;19.95;;;;;;;;;;5099143;28;20087;-64
2021/09/25 11:14:56;;;;;;;30.90;20.13;;;;;;;;;;5110937;28;20529;-64
2021/09/25 11:17:42;;;;;;;55.92;21.45;;;;;;;;;;5113186;28;20051;-64
2021/09/25 11:20:27;;;;;;;27.67;20.52;;;;;;;;;;5112781;28;20494;-63
2021/09/25 11:23:12;;;;;;;39.95;21.60;;;;;;;;;;5096786;28;20048;-64
2021/09/25 11:25:57;;;;;;;34.72;21.77;;;;;;;;;;5113018;28;20048;-64
2021/09/25 11:28:45;;;;;;;32.53;21.13;;;;;;;;;;5103987;28;20118;-65
2021/09/25 11:31:30;;;;;;;29.50;20.42;;;;;;;;;;5112884;28;20055;-64
2021/09/25 11:34:25;;;;;;;31.95;21.58;;;;;;;;;;5100160;28;20048;-64
2021/09/25 11:37:11;;;;;;;28.77;21.70;;;;;;;;;;5099399;28;20399;-63
2021/09/25 11:39:56;;;;;;;32.17;21.75;;;;;;;;;;5115234;22;20443;-66
2021/09/25 11:42:41;;;;;;;52.55;23.63;;;;;;;;;;5103365;28;20067;-66
2021/09/25 11:45:29;;;;;;;35.15;22.05;;;;;;;;;;5102902;28;20047;-65
2021/09/25 11:48:15;;;;;;;32.17;20.85;;;;;;;;;;5100187;28;20048;-65
2021/09/25 11:51:02;;;;;;;33.42;22.05;;;;;;;;;;5102731;28;20056;-65
2021/09/25 11:53:49;;;;;;;29.15;19.83;;;;;;;;;;5101994;28;20055;-65
2021/09/25 11:56:36;;;;;;;36.20;22.55;;;;;;;;;;5095271;28;20044;-65
2021/09/25 11:59:23;;;;;;;29.40;20.75;;;;;;;;;;5101681;28;20115;-65
2021/09/25 12:02:08;;;;;;;28.88;20.42;;;;;;;;;;5101014;28;20052;-66
2021/09/25 12:04:53;;;;;;;36.25;21.83;;;;;;;;;;5101714;28;20035;-66
2021/09/25 12:07:45;;;;;;;40.13;22.05;;;;;;;;;;5103865;28;20114;-65
2021/09/25 12:10:32;;;;;;;29.08;20.73;;;;;;;;;;5096051;28;20047;-65
2021/09/25 12:13:21;;;;;;;27.77;19.85;;;;;;;;;;5101108;28;20063;-66
2021/09/25 12:16:07;;;;;;;30.25;21.98;;;;;;;;;;5103416;28;20123;-63
2021/09/25 12:18:52;;;;;;;49.10;22.35;;;;;;;;;;5104932;28;20521;-63
2021/09/25 12:21:38;;;;;;;32.20;21.25;;;;;;;;;;5106139;28;20401;-65
2021/09/25 12:24:23;;;;;;;27.52;20.33;;;;;;;;;;5100947;28;20039;-66
2021/09/25 12:27:08;;;;;;;35.72;21.77;;;;;;;;;;5104816;28;20040;-65
2021/09/25 12:29:54;;;;;;;33.38;22.40;;;;;;;;;;5103225;28;20056;-66
2021/09/25 12:32:42;;;;;;;30.40;20.55;;;;;;;;;;5104146;28;20123;-65
2021/09/25 12:35:27;;;;;;;29.92;20.23;;;;;;;;;;5102072;28;20047;-66
2021/09/25 12:38:13;;;;;;;26.27;18.80;;;;;;;;;;5104546;28;20052;-73
2021/09/25 12:41:00;;;;;;;26.73;19.17;;;;;;;;;;5082159;28;20052;-72
2021/09/25 12:43:46;;;;;;;26.40;20.27;;;;;;;;;;5057045;28;20056;-72
2021/09/25 12:46:31;;;;;;;32.05;21.50;;;;;;;;;;5050264;28;20388;-73
2021/09/25 12:49:22;;;;;;;30.70;20.83;;;;;;;;;;5056964;28;20067;-73
2021/09/25 12:52:08;;;;;;;23.90;20.47;;;;;;;;;;5069598;28;20502;-73
2021/09/25 12:54:53;;;;;;;29.50;21.33;;;;;;;;;;5074523;28;20584;-73
2021/09/25 12:57:38;;;;;;;31.42;23.10;;;;;;;;;;5059774;28;20051;-73
2021/09/25 13:01:29;;;;;;;29.13;21.55;;;;;;;;;;5099649;27;20136;-73
2021/09/25 13:04:15;;;;;;;28.13;19.85;;;;;;;;;;5079849;28;20056;-72
2021/09/25 13:07:00;;;;;;;28.48;20.40;;;;;;;;;;5080305;28;20048;-72
2021/09/25 13:09:49;;;;;;;28.10;21.05;;;;;;;;;;5089414;28;20384;-72
2021/09/25 13:12:38;;;;;;;36.28;22.67;;;;;;;;;;5092168;28;20045;-72
2021/09/25 13:15:24;;;;;;;29.95;22.10;;;;;;;;;;5060709;28;20053;-72
2021/09/25 13:18:09;;;;;;;33.35;21.70;;;;;;;;;;5063434;28;20056;-72
2021/09/25 13:20:54;;;;;;;27.10;21.10;;;;;;;;;;5059881;28;20495;-72
2021/09/25 13:23:40;;;;;;;33.50;21.92;;;;;;;;;;5079572;28;20388;-72
2021/09/25 13:26:25;;;;;;;26.63;21.95;;;;;;;;;;5064076;28;20379;-72
2021/09/25 13:29:10;;;;;;;26.13;22.40;;;;;;;;;;5089704;28;20041;-72
2021/09/25 13:31:55;;;;;;;28.45;21.00;;;;;;;;;;5087073;28;20050;-72
2021/09/25 13:34:40;;;;;;;29.17;22.58;;;;;;;;;;5062930;28;20049;-72
2021/09/25 13:37:26;;;;;;;27.02;22.13;;;;;;;;;;5089171;28;20053;-72
2021/09/25 13:40:11;;;;;;;29.42;22.00;;;;;;;;;;5061293;28;20081;-72
2021/09/25 13:42:57;;;;;;;25.42;19.67;;;;;;;;;;5063306;28;20052;-73
2021/09/25 13:45:42;;;;;;;22.17;19.13;;;;;;;;;;5062227;28;20041;-73
2021/09/25 13:48:27;;;;;;;26.15;20.08;;;;;;;;;;5063417;28;20049;-73
2021/09/25 13:51:12;;;;;;;32.47;19.15;;;;;;;;;;5063838;28;20064;-73
2021/09/25 13:53:57;;;;;;;26.10;18.90;;;;;;;;;;5061004;28;20080;-72
2021/09/25 13:56:42;;;;;;;28.92;19.52;;;;;;;;;;5088219;28;20048;-72
2021/09/25 13:59:27;;;;;;;27.33;19.90;;;;;;;;;;5060584;28;20059;-72
2021/09/25 14:02:12;;;;;;;25.05;18.65;;;;;;;;;;5062519;28;20057;-73
2021/09/25 14:04:58;;;;;;;25.25;18.58;;;;;;;;;;5061261;28;20044;-72
2021/09/25 14:07:43;;;;;;;26.05;19.95;;;;;;;;;;5083174;28;20474;-72
2021/09/25 14:10:28;;;;;;;22.70;18.38;;;;;;;;;;5063177;28;20057;-72
2021/09/25 14:13:13;;;;;;;25.23;18.95;;;;;;;;;;5074608;28;20049;-72
2021/09/25 14:15:58;;;;;;;24.95;19.17;;;;;;;;;;5048187;28;20053;-73
2021/09/25 14:18:46;;;;;;;25.10;20.13;;;;;;;;;;5075259;28;20053;-72
2021/09/25 14:21:37;;;;;;;25.25;20.63;;;;;;;;;;5077270;28;20061;-72
2021/09/25 14:24:23;;;;;;;26.33;20.33;;;;;;;;;;5034064;28;20045;-72
2021/09/25 14:27:08;;;;;;;26.60;20.75;;;;;;;;;;5049219;28;20052;-76
2021/09/25 14:29:54;;;;;;;23.38;19.35;;;;;;;;;;5052554;28;20048;-71
2021/09/25 14:32:39;;;;;;;26.15;20.02;;;;;;;;;;5050226;28;20320;-72
2021/09/25 14:35:25;;;;;;;26.05;20.48;;;;;;;;;;5050821;28;20061;-70
2021/09/25 14:38:10;;;;;;;28.77;20.38;;;;;;;;;;5051625;28;20057;-72
2021/09/25 14:40:55;;;;;;;28.65;21.40;;;;;;;;;;5051061;28;20487;-72
2021/09/25 14:43:42;;;;;;;28.30;22.27;;;;;;;;;;5046371;28;20407;-71
2021/09/25 14:46:29;;;;;;;28.08;21.48;;;;;;;;;;5071231;28;20053;-72
2021/09/25 14:49:14;;;;;;;30.48;21.63;;;;;;;;;;5036519;28;20057;-72
2021/09/25 14:51:59;;;;;;;27.85;21.67;;;;;;;;;;5050027;28;20140;-73
2021/09/25 14:54:44;;;;;;;27.50;21.65;;;;;;;;;;5029165;28;20467;-73
2021/09/25 14:57:30;;;;;;;29.40;21.83;;;;;;;;;;5050269;28;20052;-73
2021/09/25 15:00:15;;;;;;;27.50;19.92;;;;;;;;;;5046451;28;20057;-72
2021/09/25 15:03:00;;;;;;;25.55;19.75;;;;;;;;;;5063563;28;20057;-73
2021/09/25 15:05:45;;;;;;;30.13;22.38;;;;;;;;;;5030388;28;20416;-75
2021/09/25 15:08:30;;;;;;;27.58;21.83;;;;;;;;;;5058754;28;20054;-71
2021/09/25 15:11:16;;;;;;;28.35;22.05;;;;;;;;;;5063013;28;20061;-72
2021/09/25 15:14:04;;;;;;;29.42;22.95;;;;;;;;;;5062283;28;20511;-72
2021/09/25 15:16:49;;;;;;;31.42;22.38;;;;;;;;;;5063225;28;20057;-73
2021/09/25 15:19:34;;;;;;;26.95;21.10;;;;;;;;;;5062874;28;20065;-69
2021/09/25 15:22:19;;;;;;;31.13;22.55;;;;;;;;;;5062997;28;20495;-70
2021/09/25 15:25:05;;;;;;;31.05;22.38;;;;;;;;;;5034898;28;20049;-70
2021/09/25 15:27:50;;;;;;;30.13;22.63;;;;;;;;;;5036172;28;20052;-72
2021/09/25 15:30:35;;;;;;;28.90;23.38;;;;;;;;;;5033887;28;20120;-73
2021/09/25 15:33:20;;;;;;;30.13;21.50;;;;;;;;;;5049116;28;20057;-71
2021/09/25 15:36:05;;;;;;;28.20;23.20;;;;;;;;;;5034889;28;20057;-68
2021/09/25 15:38:50;;;;;;;28.70;22.88;;;;;;;;;;5049114;28;20085;-70
2021/09/25 15:41:35;;;;;;;39.55;25.02;;;;;;;;;;5048193;28;20057;-70
2021/09/25 15:44:21;;;;;;;30.42;23.35;;;;;;;;;;5048265;28;20057;-70
2021/09/25 15:47:06;;;;;;;32.90;25.13;;;;;;;;;;5049313;28;20407;-71
2021/09/25 15:49:51;;;;;;;29.25;23.00;;;;;;;;;;5050729;28;20128;-70
2021/09/25 15:52:36;;;;;;;33.05;24.38;;;;;;;;;;5048689;28;20075;-71
2021/09/25 15:55:22;;;;;;;40.08;24.50;;;;;;;;;;5048883;28;20053;-71
2021/09/25 15:58:07;;;;;;;38.75;24.20;;;;;;;;;;5049021;28;20132;-69
2021/09/25 16:00:52;;;;;;;33.17;24.13;;;;;;;;;;5045687;28;20045;-71
2021/09/25 16:03:37;;;;;;;35.17;24.88;;;;;;;;;;5050519;28;20053;-70
2021/09/25 16:06:23;;;;;;;37.15;24.52;;;;;;;;;;5048967;28;20051;-71
2021/09/25 16:09:08;;;;;;;32.78;24.42;;;;;;;;;;5044051;28;20053;-70
2021/09/25 16:11:53;;;;;;;32.47;24.33;;;;;;;;;;5048439;28;20131;-70